createdAt,value
2019-03-27T00:01:53.048Z,2.81
2019-03-27T00:04:24.667Z,2.74
2019-03-27T00:06:58.835Z,2.77
2019-03-27T00:09:32.931Z,2.78
2019-03-27T00:12:07.181Z,2.81
2019-03-27T00:14:41.305Z,2.81
2019-03-27T00:17:15.851Z,2.82
2019-03-27T00:19:49.838Z,2.81
2019-03-27T00:22:23.797Z,2.83
2019-03-27T00:24:59.136Z,2.83
2019-03-27T00:27:36.160Z,2.81
2019-03-27T00:30:11.157Z,2.82
2019-03-27T00:32:45.304Z,2.82
2019-03-27T00:35:20.090Z,2.82
2019-03-27T00:37:54.175Z,2.79
2019-03-27T00:40:29.464Z,2.72
2019-03-27T00:43:03.486Z,2.67
2019-03-27T00:45:37.537Z,2.62
2019-03-27T00:48:11.636Z,2.58
2019-03-27T00:50:47.291Z,2.56
2019-03-27T00:53:21.308Z,2.53
2019-03-27T00:55:55.349Z,2.45
2019-03-27T00:58:29.900Z,2.40
2019-03-27T01:01:16.681Z,2.32
2019-03-27T01:03:52.292Z,2.20
2019-03-27T01:06:26.445Z,2.17
2019-03-27T01:09:00.507Z,2.18
2019-03-27T01:11:36.078Z,2.11
2019-03-27T01:14:10.203Z,2.09
2019-03-27T01:16:44.878Z,2.12
2019-03-27T01:19:19.033Z,2.12
2019-03-27T01:21:54.554Z,2.10
2019-03-27T01:24:29.533Z,2.05
2019-03-27T01:27:04.571Z,2.05
2019-03-27T01:29:38.686Z,2.03
2019-03-27T01:32:12.701Z,2.06
2019-03-27T01:34:46.746Z,2.00
2019-03-27T01:37:22.447Z,1.98
2019-03-27T01:40:03.463Z,1.94
2019-03-27T01:42:37.542Z,1.90
2019-03-27T01:45:11.635Z,1.83
2019-03-27T01:47:45.686Z,1.85
2019-03-27T01:50:21.412Z,1.85
2019-03-27T01:52:56.971Z,1.85
2019-03-27T01:55:31.051Z,1.82
2019-03-27T01:58:05.117Z,1.66
2019-03-27T02:00:39.706Z,1.64
2019-03-27T02:03:16.584Z,1.64
2019-03-27T02:05:50.730Z,1.61
2019-03-27T02:08:24.809Z,1.62
2019-03-27T02:10:58.894Z,1.62
2019-03-27T02:13:33.573Z,1.59
2019-03-27T02:16:07.684Z,1.57
2019-03-27T02:18:44.288Z,1.49
2019-03-27T02:21:18.472Z,1.48
2019-03-27T02:23:53.558Z,1.38
2019-03-27T02:26:29.794Z,1.37
2019-03-27T02:29:05.921Z,1.38
2019-03-27T02:31:54.028Z,1.37
2019-03-27T02:34:28.138Z,1.32
2019-03-27T02:37:03.327Z,1.32
2019-03-27T02:39:43.515Z,1.33
2019-03-27T02:45:20.054Z,1.31
2019-03-27T02:47:54.312Z,1.31
2019-03-27T02:50:29.714Z,1.33
2019-03-27T02:53:05.789Z,1.32
2019-03-27T02:55:44.316Z,1.35
2019-03-27T02:58:18.469Z,1.32
2019-03-27T03:00:52.616Z,1.28
2019-03-27T03:03:29.051Z,1.22
2019-03-27T03:06:03.191Z,1.17
2019-03-27T03:08:44.192Z,1.13
2019-03-27T03:11:18.317Z,1.09
2019-03-27T03:13:52.697Z,1.10
2019-03-27T03:16:41.241Z,1.10
2019-03-27T03:19:02.572Z,1.09
2019-03-27T03:21:37.017Z,1.07
2019-03-27T03:24:11.134Z,1.02
2019-03-27T03:26:45.247Z,1.00
2019-03-27T03:29:19.566Z,0.90
2019-03-27T03:32:22.514Z,0.84
2019-03-27T03:35:13.797Z,0.86
2019-03-27T03:48:10.038Z,0.81
2019-03-27T05:42:11.021Z,1.81
2019-03-27T05:44:53.135Z,2.11
2019-03-27T05:47:29.927Z,2.60
2019-03-27T05:50:26.891Z,2.90
2019-03-27T05:52:52.024Z,3.22
2019-03-27T05:58:30.218Z,3.76
2019-03-27T06:01:04.735Z,4.04
2019-03-27T06:03:39.095Z,4.17
2019-03-27T06:06:13.460Z,4.40
2019-03-27T06:08:47.816Z,4.67
2019-03-27T06:11:22.191Z,4.87
2019-03-27T06:13:56.592Z,5.04
2019-03-27T06:16:31.063Z,5.16
2019-03-27T06:19:23.190Z,5.40
2019-03-27T06:21:57.448Z,5.61
2019-03-27T06:24:32.580Z,5.86
2019-03-27T06:27:10.624Z,6.05
2019-03-27T06:29:45.974Z,6.21
2019-03-27T06:32:20.240Z,6.34
2019-03-27T06:34:54.648Z,6.60
2019-03-27T06:37:33.519Z,6.77
2019-03-27T06:40:09.427Z,6.83
2019-03-27T06:42:45.747Z,6.89
2019-03-27T06:45:20.094Z,7.06
2019-03-27T06:47:54.261Z,7.26
2019-03-27T06:50:28.899Z,7.34
2019-03-27T06:53:07.094Z,7.45
2019-03-27T06:55:43.602Z,7.62
2019-03-27T06:58:17.836Z,7.66
2019-03-27T07:00:52.468Z,7.92
2019-03-27T07:03:27.061Z,8.12
2019-03-27T07:06:01.196Z,8.21
2019-03-27T07:08:35.222Z,8.41
2019-03-27T07:11:09.414Z,8.74
2019-03-27T07:13:43.713Z,8.92
2019-03-27T07:16:17.848Z,8.93
2019-03-27T07:18:52.139Z,9.17
2019-03-27T07:21:26.257Z,9.24
2019-03-27T07:24:00.426Z,9.42
2019-03-27T07:26:34.659Z,9.51
2019-03-27T07:29:08.801Z,9.54
2019-03-27T07:31:42.800Z,9.77
2019-03-27T07:34:17.270Z,9.96
2019-03-27T07:36:51.696Z,10.06
2019-03-27T07:39:25.743Z,10.18
2019-03-27T07:41:59.786Z,10.15
2019-03-27T07:44:35.254Z,10.34
2019-03-27T07:47:09.426Z,10.43
2019-03-27T07:49:43.588Z,10.46
2019-03-27T07:52:17.654Z,10.66
2019-03-27T07:54:51.872Z,10.71
2019-03-27T07:57:26.096Z,10.66
2019-03-27T08:00:00.354Z,10.74
2019-03-27T08:02:34.517Z,10.93
2019-03-27T08:05:09.132Z,10.91
2019-03-27T08:07:44.636Z,10.97
2019-03-27T08:10:19.004Z,10.86
2019-03-27T08:12:53.787Z,11.05
2019-03-27T08:15:27.832Z,11.06
2019-03-27T08:18:01.927Z,11.16
2019-03-27T08:20:36.298Z,11.36
2019-03-27T08:23:11.025Z,11.52
2019-03-27T08:25:45.406Z,11.25
2019-03-27T08:28:19.488Z,11.48
2019-03-27T08:30:55.342Z,11.46
2019-03-27T08:33:29.593Z,11.45
2019-03-27T08:36:03.798Z,11.71
2019-03-27T08:38:38.494Z,12.14
2019-03-27T08:41:12.542Z,12.44
2019-03-27T08:43:46.646Z,12.33
2019-03-27T08:46:20.687Z,12.25
2019-03-27T08:48:54.782Z,12.79
2019-03-27T08:51:29.295Z,12.77
2019-03-27T08:54:03.877Z,12.48
2019-03-27T08:56:37.948Z,12.41
2019-03-27T08:59:12.046Z,12.47
2019-03-27T09:01:46.155Z,12.53
2019-03-27T09:04:20.511Z,12.63
2019-03-27T09:06:54.539Z,12.68
2019-03-27T09:09:28.899Z,12.59
2019-03-27T09:12:03.503Z,12.54
2019-03-27T09:14:37.700Z,12.58
2019-03-27T09:17:11.796Z,12.62
2019-03-27T09:19:46.245Z,12.63
2019-03-27T09:22:20.372Z,12.60
2019-03-27T09:24:54.557Z,12.71
2019-03-27T09:27:28.934Z,12.63
2019-03-27T09:30:03.087Z,12.66
2019-03-27T09:32:37.568Z,12.73
2019-03-27T09:35:11.705Z,12.89
2019-03-27T09:37:45.834Z,12.97
2019-03-27T09:40:19.863Z,13.01
2019-03-27T09:42:53.904Z,13.07
2019-03-27T09:45:27.947Z,13.07
2019-03-27T09:48:02.046Z,13.29
2019-03-27T09:50:36.126Z,13.50
2019-03-27T09:53:21.268Z,13.47
2019-03-27T09:55:55.443Z,13.47
2019-03-27T09:58:29.545Z,13.52
2019-03-27T10:01:08.295Z,13.59
2019-03-27T10:03:42.391Z,13.54
2019-03-27T10:06:17.853Z,13.60
2019-03-27T10:08:52.491Z,13.66
2019-03-27T10:11:26.888Z,13.34
2019-03-27T10:14:00.995Z,13.34
2019-03-27T10:16:35.174Z,13.39
2019-03-27T10:19:09.774Z,13.54
2019-03-27T10:21:44.063Z,13.68
2019-03-27T10:24:18.178Z,13.78
2019-03-27T10:26:52.504Z,13.53
2019-03-27T10:29:26.482Z,13.20
2019-03-27T10:32:00.954Z,13.30
2019-03-27T10:34:34.946Z,13.54
2019-03-27T10:37:09.340Z,13.68
2019-03-27T10:39:43.445Z,13.71
2019-03-27T10:42:17.505Z,13.96
2019-03-27T10:44:51.640Z,14.05
2019-03-27T10:47:27.758Z,14.14
2019-03-27T10:50:01.943Z,14.25
2019-03-27T10:52:35.998Z,14.17
2019-03-27T10:55:10.005Z,14.05
2019-03-27T10:57:45.595Z,14.15
2019-03-27T11:00:20.198Z,14.27
2019-03-27T11:02:54.281Z,14.39
2019-03-27T11:05:29.261Z,14.59
2019-03-27T11:08:03.180Z,14.56
2019-03-27T11:10:37.279Z,14.80
2019-03-27T11:13:11.360Z,14.92
2019-03-27T11:15:45.324Z,14.90
2019-03-27T11:18:19.333Z,14.96
2019-03-27T11:20:53.769Z,14.96
2019-03-27T11:23:28.934Z,14.64
2019-03-27T11:26:03.968Z,14.73
2019-03-27T11:28:38.123Z,14.52
2019-03-27T11:31:12.544Z,14.75
2019-03-27T11:33:46.533Z,14.95
2019-03-27T11:36:22.942Z,15.08
2019-03-27T11:38:56.997Z,15.15
2019-03-27T11:41:31.059Z,15.18
2019-03-27T11:44:05.221Z,15.00
2019-03-27T11:46:39.259Z,14.45
2019-03-27T11:49:13.228Z,14.38
2019-03-27T11:51:47.216Z,14.14
2019-03-27T11:54:21.263Z,14.13
2019-03-27T11:56:55.614Z,13.95
2019-03-27T11:59:29.637Z,13.72
2019-03-27T12:02:03.610Z,13.37
2019-03-27T12:04:37.754Z,13.28
2019-03-27T12:07:11.775Z,13.29
2019-03-27T12:09:45.795Z,13.17
2019-03-27T12:12:19.956Z,13.09
2019-03-27T12:14:54.559Z,13.06
2019-03-27T12:17:28.639Z,12.96
2019-03-27T12:20:02.933Z,12.87
2019-03-27T12:22:37.531Z,12.74
2019-03-27T12:25:11.586Z,12.56
2019-03-27T12:27:45.626Z,12.41
2019-03-27T12:30:19.670Z,12.35
2019-03-27T12:32:53.975Z,12.38
2019-03-27T12:35:28.023Z,12.34
2019-03-27T12:38:04.416Z,12.20
2019-03-27T12:40:39.612Z,12.10
2019-03-27T12:43:13.752Z,11.98
2019-03-27T12:45:47.943Z,12.03
2019-03-27T12:48:22.012Z,11.72
2019-03-27T12:50:56.443Z,11.76
2019-03-27T12:53:30.620Z,11.72
2019-03-27T12:56:04.772Z,11.59
2019-03-27T12:58:38.815Z,11.59
2019-03-27T13:01:13.310Z,11.53
2019-03-27T13:03:48.338Z,11.46
2019-03-27T13:06:22.508Z,11.38
2019-03-27T13:08:56.672Z,11.27
2019-03-27T13:11:30.681Z,11.26
2019-03-27T13:14:07.710Z,11.25
2019-03-27T13:16:42.860Z,11.32
2019-03-27T13:19:16.844Z,11.27
2019-03-27T13:21:52.057Z,11.26
2019-03-27T13:24:26.108Z,11.22
2019-03-27T13:27:00.195Z,11.24
2019-03-27T13:29:34.230Z,11.15
2019-03-27T13:32:08.346Z,11.11
2019-03-27T13:34:42.431Z,11.06
2019-03-27T13:37:17.106Z,11.02
2019-03-27T13:39:51.394Z,10.99
2019-03-27T13:42:25.919Z,10.88
2019-03-27T13:44:59.992Z,10.93
2019-03-27T13:47:34.239Z,10.93
2019-03-27T13:50:12.754Z,10.91
2019-03-27T13:52:45.260Z,10.92
2019-03-27T13:55:19.445Z,10.71
2019-03-27T13:57:53.568Z,10.75
2019-03-27T14:00:27.690Z,10.83
2019-03-27T14:03:01.925Z,10.83
2019-03-27T14:05:36.179Z,10.78
2019-03-27T14:08:10.245Z,10.80
2019-03-27T14:10:44.438Z,10.69
2019-03-27T14:13:18.689Z,10.75
2019-03-27T14:15:53.105Z,10.73
2019-03-27T14:18:27.168Z,10.73
2019-03-27T14:21:02.169Z,10.78
2019-03-27T14:23:36.578Z,10.78
2019-03-27T14:26:10.720Z,10.81
2019-03-27T14:28:44.733Z,10.80
2019-03-27T14:31:18.740Z,10.84
2019-03-27T14:33:52.887Z,10.90
2019-03-27T14:36:26.991Z,10.92
2019-03-27T14:39:00.962Z,10.93
2019-03-27T14:41:36.275Z,10.95
2019-03-27T14:44:10.783Z,10.94
2019-03-27T14:46:44.959Z,10.92
2019-03-27T14:49:19.141Z,10.94
2019-03-27T14:52:07.418Z,10.81
2019-03-27T14:54:29.970Z,10.79
2019-03-27T14:57:04.054Z,10.78
2019-03-27T14:59:38.237Z,10.80
2019-03-27T15:02:12.443Z,10.78
2019-03-27T15:04:46.778Z,10.71
2019-03-27T15:07:20.793Z,10.66
2019-03-27T15:09:54.817Z,10.66
2019-03-27T15:12:31.008Z,10.65
2019-03-27T15:15:05.307Z,10.61
2019-03-27T15:17:39.488Z,10.57
2019-03-27T15:20:13.690Z,10.51
2019-03-27T15:22:47.737Z,10.50
2019-03-27T15:25:21.797Z,10.44
2019-03-27T15:27:56.336Z,10.40
2019-03-27T15:30:30.535Z,10.33
2019-03-27T15:33:04.871Z,10.30
2019-03-27T15:35:39.345Z,10.25
2019-03-27T15:38:28.287Z,10.31
2019-03-27T15:41:11.311Z,10.28
2019-03-27T15:43:45.162Z,10.29
2019-03-27T15:46:20.770Z,10.31
2019-03-27T15:48:55.573Z,10.31
2019-03-27T15:51:29.788Z,10.34
2019-03-27T15:54:03.989Z,10.37
2019-03-27T15:56:38.590Z,10.39
2019-03-27T15:59:12.871Z,10.39
2019-03-27T16:01:48.150Z,10.36
2019-03-27T16:04:22.302Z,10.32
2019-03-27T16:06:56.530Z,10.28
2019-03-27T16:09:30.800Z,10.28
2019-03-27T16:12:05.074Z,10.25
2019-03-27T16:14:40.459Z,10.18
2019-03-27T16:17:14.784Z,10.18
2019-03-27T16:19:48.981Z,10.16
2019-03-27T16:22:23.784Z,10.17
2019-03-27T16:24:57.820Z,10.19
2019-03-27T16:27:31.877Z,10.21
2019-03-27T16:30:10.688Z,10.21
2019-03-27T16:33:03.818Z,10.22
2019-03-27T16:35:38.046Z,10.17
2019-03-27T16:38:12.088Z,10.13
2019-03-27T16:41:15.384Z,10.15
2019-03-27T16:44:00.517Z,10.12
2019-03-27T16:46:41.369Z,10.05
2019-03-27T16:49:27.004Z,10.05
2019-03-27T16:52:01.229Z,10.00
2019-03-27T16:54:36.845Z,9.96
2019-03-27T16:57:16.148Z,9.93
2019-03-27T16:59:50.335Z,9.91
2019-03-27T17:02:24.402Z,9.91
2019-03-27T17:05:00.832Z,9.87
2019-03-27T17:07:34.804Z,9.83
2019-03-27T17:10:09.377Z,9.79
2019-03-27T17:12:49.403Z,9.74
2019-03-27T17:15:32.453Z,9.74
2019-03-27T17:18:07.655Z,9.78
2019-03-27T17:20:42.869Z,9.72
2019-03-27T17:23:18.429Z,9.69
2019-03-27T17:25:52.762Z,9.65
2019-03-27T17:28:27.492Z,9.67
2019-03-27T17:31:02.167Z,9.68
2019-03-27T17:33:36.373Z,9.78
2019-03-27T17:36:10.425Z,9.78
2019-03-27T17:38:44.475Z,9.77
2019-03-27T17:41:19.043Z,9.79
2019-03-27T17:43:53.095Z,9.77
2019-03-27T17:46:27.563Z,9.72
2019-03-27T17:49:01.620Z,9.75
2019-03-27T17:51:38.843Z,9.75
2019-03-27T17:54:20.329Z,9.77
2019-03-27T17:56:53.128Z,9.73
2019-03-27T17:59:27.492Z,9.73
2019-03-27T18:02:01.732Z,9.70
2019-03-27T18:04:35.879Z,9.63
2019-03-27T18:07:09.995Z,9.62
2019-03-27T18:09:43.995Z,9.58
2019-03-27T18:12:18.312Z,9.52
2019-03-27T18:14:52.391Z,9.53
2019-03-27T18:17:27.354Z,9.51
2019-03-27T18:20:01.377Z,9.53
2019-03-27T18:22:35.423Z,9.53
2019-03-27T18:25:09.503Z,9.49
2019-03-27T18:27:43.511Z,9.46
2019-03-27T18:30:17.913Z,9.43
2019-03-27T18:32:52.173Z,9.41
2019-03-27T18:35:27.845Z,9.42
2019-03-27T18:38:01.924Z,9.39
2019-03-27T18:40:36.495Z,9.40
2019-03-27T18:43:10.555Z,9.38
2019-03-27T18:45:44.598Z,9.32
2019-03-27T18:48:19.474Z,9.30
2019-03-27T18:50:53.883Z,9.30
2019-03-27T18:53:28.217Z,9.30
2019-03-27T18:56:02.408Z,9.27
2019-03-27T18:58:36.501Z,9.28
2019-03-27T19:01:11.084Z,9.29
2019-03-27T19:03:45.120Z,9.28
2019-03-27T19:06:19.344Z,9.26
2019-03-27T19:08:54.587Z,9.25
2019-03-27T19:11:59.452Z,9.25
2019-03-27T19:14:38.150Z,9.27
2019-03-27T19:17:12.670Z,9.26
2019-03-27T19:19:46.733Z,9.22
2019-03-27T19:22:22.260Z,9.20
2019-03-27T19:24:56.458Z,9.12
2019-03-27T19:27:30.481Z,8.97
2019-03-27T19:30:04.594Z,8.96
2019-03-27T19:32:38.651Z,9.02
2019-03-27T19:35:13.001Z,8.97
2019-03-27T19:37:47.241Z,8.98
2019-03-27T19:40:21.233Z,8.99
2019-03-27T19:42:56.769Z,9.01
2019-03-27T19:45:31.719Z,9.03
2019-03-27T19:48:05.861Z,9.01
2019-03-27T19:50:39.892Z,8.94
2019-03-27T19:53:14.029Z,8.86
2019-03-27T19:55:48.035Z,8.90
2019-03-27T19:58:22.055Z,8.83
2019-03-27T20:00:56.102Z,8.85
2019-03-27T20:03:30.109Z,8.82
2019-03-27T20:06:04.275Z,8.80
2019-03-27T20:08:38.428Z,8.73
2019-03-27T20:11:12.545Z,8.67
2019-03-27T20:13:46.803Z,8.57
2019-03-27T20:16:20.818Z,8.60
2019-03-27T20:18:54.947Z,8.62
2019-03-27T20:21:28.951Z,8.63
2019-03-27T20:24:02.966Z,8.62
2019-03-27T20:26:37.253Z,8.60
2019-03-27T20:29:11.259Z,8.55
2019-03-27T20:31:45.266Z,8.53
2019-03-27T20:34:19.275Z,8.50
2019-03-27T20:36:55.747Z,8.51
2019-03-27T20:39:29.876Z,8.53
2019-03-27T20:42:05.410Z,8.50
2019-03-27T20:44:39.755Z,8.46
2019-03-27T20:47:13.870Z,8.48
2019-03-27T20:49:47.998Z,8.47
2019-03-27T20:52:22.942Z,8.50
2019-03-27T20:54:57.058Z,8.49
2019-03-27T20:57:31.049Z,8.48
2019-03-27T21:00:05.644Z,8.46
2019-03-27T21:02:39.873Z,8.48
2019-03-27T21:05:13.844Z,8.45
2019-03-27T21:07:48.038Z,8.44
2019-03-27T21:10:22.055Z,8.45
2019-03-27T21:12:55.969Z,8.48
2019-03-27T21:15:29.971Z,8.50
2019-03-27T21:18:03.975Z,8.49
2019-03-27T21:20:37.957Z,8.49
2019-03-27T21:23:11.979Z,8.48
2019-03-27T21:25:45.984Z,8.50
2019-03-27T21:28:20.111Z,8.49
2019-03-27T21:30:55.261Z,8.52
2019-03-27T21:33:29.253Z,8.50
2019-03-27T21:36:03.260Z,8.49
2019-03-27T21:38:37.239Z,8.51
2019-03-27T21:41:11.240Z,8.49
2019-03-27T21:43:45.248Z,8.48
2019-03-27T21:46:19.226Z,8.50
2019-03-27T21:48:53.210Z,8.50
2019-03-27T21:51:27.127Z,8.48
2019-03-27T21:54:01.250Z,8.49
2019-03-27T21:56:35.158Z,8.51
2019-03-27T21:59:09.182Z,8.53
2019-03-27T22:01:43.176Z,8.53
2019-03-27T22:04:17.174Z,8.53
2019-03-27T22:06:51.192Z,8.54
2019-03-27T22:09:25.178Z,8.53
2019-03-27T22:11:59.189Z,8.51
2019-03-27T22:14:33.225Z,8.50
2019-03-27T22:17:07.194Z,8.49
2019-03-27T22:19:41.194Z,8.50
2019-03-27T22:22:15.161Z,8.53
2019-03-27T22:24:49.176Z,8.55
2019-03-27T22:27:23.157Z,8.53
2019-03-27T22:29:57.129Z,8.52
2019-03-27T22:32:31.099Z,8.56
2019-03-27T22:35:05.152Z,8.51
2019-03-27T22:37:39.121Z,8.54
2019-03-27T22:40:13.178Z,8.57
2019-03-27T22:42:47.026Z,8.59
2019-03-27T22:45:21.026Z,8.59
2019-03-27T22:47:55.022Z,8.60
2019-03-27T22:50:30.127Z,8.59
2019-03-27T22:53:04.179Z,8.60
2019-03-27T22:55:49.162Z,8.61
2019-03-27T22:58:13.891Z,8.64
2019-03-27T23:00:49.799Z,8.61
2019-03-27T23:03:23.895Z,8.64
2019-03-27T23:05:57.841Z,8.62
2019-03-27T23:08:31.757Z,8.64
2019-03-27T23:11:05.895Z,8.58
2019-03-27T23:13:39.866Z,8.64
2019-03-27T23:16:13.851Z,8.63
2019-03-27T23:18:47.908Z,8.65
2019-03-27T23:21:21.881Z,8.65
2019-03-27T23:23:55.981Z,8.65
2019-03-27T23:26:30.266Z,8.67
2019-03-27T23:29:04.269Z,8.65
2019-03-27T23:31:38.259Z,8.65
2019-03-27T23:34:12.230Z,8.65
2019-03-27T23:36:46.209Z,8.65
2019-03-27T23:39:21.138Z,8.65
2019-03-27T23:41:55.169Z,8.66
2019-03-27T23:44:29.123Z,8.65
2019-03-27T23:47:03.246Z,8.65
2019-03-27T23:49:37.225Z,8.62
2019-03-27T23:52:11.158Z,8.63
2019-03-27T23:54:45.148Z,8.63
2019-03-27T23:57:19.221Z,8.64
2019-03-27T23:59:53.300Z,8.62
